sensor_id;sensor_type;location;lat;lon;timestamp;noise_LAeq;noise_LA_min;noise_LA_max;noise_LA01;noise_LA95
74260;Laerm;62630;55.874;37.516;2023-05-10T00:02:24;57.39;47.21;68.71;;
74260;Laerm;62630;55.874;37.516;2023-05-10T00:04:50;53.47;46.63;66.13;;
74260;Laerm;62630;55.874;37.516;2023-05-10T00:07:15;56.83;47.13;73.12;;
74260;Laerm;62630;55.874;37.516;2023-05-10T00:09:42;53.27;46.04;70.52;;
74260;Laerm;62630;55.874;37.516;2023-05-10T00:12:08;53.13;46.14;63.39;;
74260;Laerm;62630;55.874;37.516;2023-05-10T00:14:34;56.60;46.64;72.51;;
74260;Laerm;62630;55.874;37.516;2023-05-10T00:17:00;54.12;47.89;68.54;;
74260;Laerm;62630;55.874;37.516;2023-05-10T00:19:26;54.14;47.81;66.27;;
74260;Laerm;62630;55.874;37.516;2023-05-10T00:21:51;53.18;46.49;68.66;;
74260;Laerm;62630;55.874;37.516;2023-05-10T00:24:17;57.56;47.52;73.82;;
74260;Laerm;62630;55.874;37.516;2023-05-10T00:26:42;50.91;46.94;59.69;;
74260;Laerm;62630;55.874;37.516;2023-05-10T00:29:11;51.93;47.51;62.64;;
74260;Laerm;62630;55.874;37.516;2023-05-10T00:31:36;51.44;47.38;55.61;;
74260;Laerm;62630;55.874;37.516;2023-05-10T00:34:02;50.46;46.99;54.05;;
74260;Laerm;62630;55.874;37.516;2023-05-10T00:36:27;50.43;46.74;56.65;;
74260;Laerm;62630;55.874;37.516;2023-05-10T00:38:53;50.72;47.07;55.35;;
74260;Laerm;62630;55.874;37.516;2023-05-10T00:41:19;53.99;46.89;64.94;;
74260;Laerm;62630;55.874;37.516;2023-05-10T00:43:44;54.97;48.22;71.21;;
74260;Laerm;62630;55.874;37.516;2023-05-10T00:46:10;53.67;47.82;66.95;;
74260;Laerm;62630;55.874;37.516;2023-05-10T00:48:36;52.35;47.86;59.90;;
74260;Laerm;62630;55.874;37.516;2023-05-10T00:51:02;55.93;48.01;67.81;;
74260;Laerm;62630;55.874;37.516;2023-05-10T00:53:28;52.15;47.86;61.10;;
74260;Laerm;62630;55.874;37.516;2023-05-10T00:55:56;55.97;48.39;71.67;;
74260;Laerm;62630;55.874;37.516;2023-05-10T00:58:21;52.80;47.26;62.19;;
74260;Laerm;62630;55.874;37.516;2023-05-10T01:00:49;56.70;47.17;71.46;;
74260;Laerm;62630;55.874;37.516;2023-05-10T01:03:16;54.72;47.08;64.78;;
74260;Laerm;62630;55.874;37.516;2023-05-10T01:05:42;53.18;46.54;66.71;;
74260;Laerm;62630;55.874;37.516;2023-05-10T01:08:08;53.17;46.74;62.42;;
74260;Laerm;62630;55.874;37.516;2023-05-10T01:10:34;56.17;47.46;67.94;;
74260;Laerm;62630;55.874;37.516;2023-05-10T01:12:59;55.43;47.32;75.68;;
74260;Laerm;62630;55.874;37.516;2023-05-10T01:15:25;54.02;47.31;67.45;;
74260;Laerm;62630;55.874;37.516;2023-05-10T01:17:52;58.22;48.44;69.43;;
74260;Laerm;62630;55.874;37.516;2023-05-10T01:20:18;59.40;48.25;76.45;;
74260;Laerm;62630;55.874;37.516;2023-05-10T01:32:31;55.02;49.22;66.97;;
74260;Laerm;62630;55.874;37.516;2023-05-10T01:34:34;57.77;49.48;69.42;;
74260;Laerm;62630;55.874;37.516;2023-05-10T01:37:12;56.12;49.90;71.29;;
74260;Laerm;62630;55.874;37.516;2023-05-10T01:39:45;54.92;50.27;69.65;;
74260;Laerm;62630;55.874;37.516;2023-05-10T01:42:18;56.99;50.16;65.97;;
74260;Laerm;62630;55.874;37.516;2023-05-10T01:45:06;57.27;52.23;63.95;;
74260;Laerm;62630;55.874;37.516;2023-05-10T01:47:43;57.54;50.75;67.78;;
74260;Laerm;62630;55.874;37.516;2023-05-10T01:50:23;58.52;50.95;71.15;;
74260;Laerm;62630;55.874;37.516;2023-05-10T01:52:53;55.24;50.98;62.75;;
74260;Laerm;62630;55.874;37.516;2023-05-10T01:55:21;57.41;50.83;67.96;;
74260;Laerm;62630;55.874;37.516;2023-05-10T01:57:52;57.39;51.05;66.94;;
74260;Laerm;62630;55.874;37.516;2023-05-10T02:00:23;56.16;50.93;65.38;;
74260;Laerm;62630;55.874;37.516;2023-05-10T02:02:49;59.00;50.78;70.37;;
74260;Laerm;62630;55.874;37.516;2023-05-10T02:05:17;56.30;50.59;67.36;;
74260;Laerm;62630;55.874;37.516;2023-05-10T02:07:43;55.19;50.91;64.19;;
74260;Laerm;62630;55.874;37.516;2023-05-10T02:10:10;58.41;51.49;69.33;;
74260;Laerm;62630;55.874;37.516;2023-05-10T02:12:40;56.81;50.73;69.58;;
74260;Laerm;62630;55.874;37.516;2023-05-10T02:15:07;60.68;50.77;73.57;;
74260;Laerm;62630;55.874;37.516;2023-05-10T02:17:35;58.19;51.92;68.76;;
74260;Laerm;62630;55.874;37.516;2023-05-10T02:20:03;61.88;52.66;73.52;;
74260;Laerm;62630;55.874;37.516;2023-05-10T02:22:30;57.49;51.52;67.32;;
74260;Laerm;62630;55.874;37.516;2023-05-10T02:24:58;59.64;52.28;71.53;;
74260;Laerm;62630;55.874;37.516;2023-05-10T02:27:25;59.96;52.61;71.18;;
74260;Laerm;62630;55.874;37.516;2023-05-10T02:29:53;57.67;52.30;67.77;;
74260;Laerm;62630;55.874;37.516;2023-05-10T02:32:21;66.05;50.30;81.51;;
74260;Laerm;62630;55.874;37.516;2023-05-10T02:34:48;55.33;50.68;61.23;;
74260;Laerm;62630;55.874;37.516;2023-05-10T02:37:18;57.42;51.42;68.40;;
74260;Laerm;62630;55.874;37.516;2023-05-10T02:39:49;61.61;52.05;73.71;;
74260;Laerm;62630;55.874;37.516;2023-05-10T02:42:18;58.41;51.34;67.89;;
74260;Laerm;62630;55.874;37.516;2023-05-10T02:44:47;57.36;51.40;67.47;;
74260;Laerm;62630;55.874;37.516;2023-05-10T02:47:13;61.35;52.03;73.40;;
74260;Laerm;62630;55.874;37.516;2023-05-10T02:49:39;61.43;52.68;72.52;;
74260;Laerm;62630;55.874;37.516;2023-05-10T02:52:05;61.06;51.33;71.11;;
74260;Laerm;62630;55.874;37.516;2023-05-10T02:54:41;57.22;52.99;73.03;;
74260;Laerm;62630;55.874;37.516;2023-05-10T02:57:12;61.96;52.84;82.65;;
74260;Laerm;62630;55.874;37.516;2023-05-10T02:59:44;60.31;51.72;73.05;;
74260;Laerm;62630;55.874;37.516;2023-05-10T03:02:12;61.36;52.22;70.84;;
74260;Laerm;62630;55.874;37.516;2023-05-10T03:04:37;61.60;53.50;72.97;;
74260;Laerm;62630;55.874;37.516;2023-05-10T03:07:03;59.75;51.75;69.32;;
74260;Laerm;62630;55.874;37.516;2023-05-10T03:09:30;61.44;52.06;78.32;;
74260;Laerm;62630;55.874;37.516;2023-05-10T03:12:18;59.83;52.88;69.84;;
74260;Laerm;62630;55.874;37.516;2023-05-10T03:17:38;59.26;52.69;69.12;;
74260;Laerm;62630;55.874;37.516;2023-05-10T03:20:08;60.71;52.68;71.78;;
74260;Laerm;62630;55.874;37.516;2023-05-10T03:23:41;59.00;52.25;81.79;;
74260;Laerm;62630;55.874;37.516;2023-05-10T03:25:35;59.28;52.69;74.27;;
74260;Laerm;62630;55.874;37.516;2023-05-10T03:28:01;59.24;52.89;67.88;;
74260;Laerm;62630;55.874;37.516;2023-05-10T03:30:33;64.12;54.17;72.51;;
74260;Laerm;62630;55.874;37.516;2023-05-10T03:33:05;64.97;53.82;81.92;;
74260;Laerm;62630;55.874;37.516;2023-05-10T03:36:00;63.12;54.52;75.90;;
74260;Laerm;62630;55.874;37.516;2023-05-10T03:38:25;62.46;53.81;75.08;;
74260;Laerm;62630;55.874;37.516;2023-05-10T03:40:51;61.32;53.74;70.18;;
74260;Laerm;62630;55.874;37.516;2023-05-10T03:43:16;63.49;54.47;71.92;;
74260;Laerm;62630;55.874;37.516;2023-05-10T03:45:42;61.46;54.16;69.73;;
74260;Laerm;62630;55.874;37.516;2023-05-10T03:48:08;62.96;54.31;71.26;;
74260;Laerm;62630;55.874;37.516;2023-05-10T03:50:35;62.14;53.96;68.92;;
74260;Laerm;62630;55.874;37.516;2023-05-10T03:53:01;62.99;55.80;73.67;;
74260;Laerm;62630;55.874;37.516;2023-05-10T03:55:27;63.90;54.72;71.65;;
74260;Laerm;62630;55.874;37.516;2023-05-10T03:57:53;63.99;54.97;76.02;;
74260;Laerm;62630;55.874;37.516;2023-05-10T04:00:19;67.88;55.40;82.76;;
74260;Laerm;62630;55.874;37.516;2023-05-10T04:02:45;64.51;56.12;71.40;;
74260;Laerm;62630;55.874;37.516;2023-05-10T04:05:11;63.94;54.68;78.78;;
74260;Laerm;62630;55.874;37.516;2023-05-10T04:07:36;63.01;55.23;78.01;;
74260;Laerm;62630;55.874;37.516;2023-05-10T04:10:02;61.88;54.68;68.92;;
74260;Laerm;62630;55.874;37.516;2023-05-10T04:12:27;63.05;55.45;70.19;;
74260;Laerm;62630;55.874;37.516;2023-05-10T04:14:53;65.79;57.47;72.99;;
74260;Laerm;62630;55.874;37.516;2023-05-10T04:17:19;64.75;57.35;77.84;;
74260;Laerm;62630;55.874;37.516;2023-05-10T04:19:45;62.43;55.64;71.10;;
74260;Laerm;62630;55.874;37.516;2023-05-10T04:22:10;64.44;58.11;71.78;;
74260;Laerm;62630;55.874;37.516;2023-05-10T04:24:36;65.23;56.04;72.85;;
74260;Laerm;62630;55.874;37.516;2023-05-10T04:27:01;67.79;56.92;78.62;;
74260;Laerm;62630;55.874;37.516;2023-05-10T04:29:27;63.10;54.73;70.61;;
74260;Laerm;62630;55.874;37.516;2023-05-10T04:31:55;63.70;54.95;77.79;;
74260;Laerm;62630;55.874;37.516;2023-05-10T04:34:24;64.16;54.97;71.04;;
74260;Laerm;62630;55.874;37.516;2023-05-10T04:36:50;63.54;54.66;78.10;;
74260;Laerm;62630;55.874;37.516;2023-05-10T04:39:16;64.89;55.62;77.24;;
74260;Laerm;62630;55.874;37.516;2023-05-10T04:41:41;65.73;57.08;76.67;;
74260;Laerm;62630;55.874;37.516;2023-05-10T04:44:07;66.64;55.65;77.04;;
74260;Laerm;62630;55.874;37.516;2023-05-10T04:46:35;65.90;56.62;81.59;;
74260;Laerm;62630;55.874;37.516;2023-05-10T04:49:01;65.22;58.02;73.93;;
74260;Laerm;62630;55.874;37.516;2023-05-10T04:51:26;63.58;55.75;70.61;;
74260;Laerm;62630;55.874;37.516;2023-05-10T04:53:52;64.17;55.45;72.73;;
74260;Laerm;62630;55.874;37.516;2023-05-10T04:56:17;64.12;57.31;72.50;;
74260;Laerm;62630;55.874;37.516;2023-05-10T04:58:43;65.33;57.92;73.34;;
74260;Laerm;62630;55.874;37.516;2023-05-10T05:01:09;65.00;54.51;72.73;;
74260;Laerm;62630;55.874;37.516;2023-05-10T05:03:35;65.31;55.64;74.35;;
74260;Laerm;62630;55.874;37.516;2023-05-10T05:06:01;63.97;54.18;71.49;;
74260;Laerm;62630;55.874;37.516;2023-05-10T05:08:27;65.29;56.42;80.94;;
74260;Laerm;62630;55.874;37.516;2023-05-10T05:10:52;64.47;54.45;70.80;;
74260;Laerm;62630;55.874;37.516;2023-05-10T05:13:18;65.11;53.32;80.06;;
74260;Laerm;62630;55.874;37.516;2023-05-10T05:15:43;65.50;57.41;79.56;;
74260;Laerm;62630;55.874;37.516;2023-05-10T05:18:09;65.31;55.86;76.38;;
74260;Laerm;62630;55.874;37.516;2023-05-10T05:20:34;64.04;55.45;72.39;;
74260;Laerm;62630;55.874;37.516;2023-05-10T05:23:01;71.23;52.93;89.72;;
74260;Laerm;62630;55.874;37.516;2023-05-10T05:25:26;65.33;54.91;73.53;;
74260;Laerm;62630;55.874;37.516;2023-05-10T05:27:52;63.81;54.76;78.69;;
74260;Laerm;62630;55.874;37.516;2023-05-10T05:30:17;65.07;55.30;72.29;;
74260;Laerm;62630;55.874;37.516;2023-05-10T05:32:43;65.37;58.04;75.15;;
74260;Laerm;62630;55.874;37.516;2023-05-10T05:35:08;63.59;52.90;77.45;;
74260;Laerm;62630;55.874;37.516;2023-05-10T05:37:34;65.85;54.10;77.29;;
74260;Laerm;62630;55.874;37.516;2023-05-10T05:40:00;64.78;53.50;73.58;;
74260;Laerm;62630;55.874;37.516;2023-05-10T05:42:27;64.13;52.43;74.91;;
74260;Laerm;62630;55.874;37.516;2023-05-10T05:44:52;63.89;55.43;80.28;;
74260;Laerm;62630;55.874;37.516;2023-05-10T05:47:18;63.82;52.07;82.09;;
74260;Laerm;62630;55.874;37.516;2023-05-10T05:49:43;63.88;52.00;74.40;;
74260;Laerm;62630;55.874;37.516;2023-05-10T05:52:11;67.43;53.94;79.95;;
74260;Laerm;62630;55.874;37.516;2023-05-10T05:54:36;65.98;54.11;81.36;;
74260;Laerm;62630;55.874;37.516;2023-05-10T05:57:02;64.79;53.12;72.15;;
74260;Laerm;62630;55.874;37.516;2023-05-10T05:59:28;62.85;51.31;73.93;;
74260;Laerm;62630;55.874;37.516;2023-05-10T06:01:56;63.45;52.59;73.82;;
74260;Laerm;62630;55.874;37.516;2023-05-10T06:04:22;63.47;52.89;75.97;;
74260;Laerm;62630;55.874;37.516;2023-05-10T06:06:48;62.33;51.55;71.55;;
74260;Laerm;62630;55.874;37.516;2023-05-10T06:09:13;63.67;51.06;71.46;;
74260;Laerm;62630;55.874;37.516;2023-05-10T06:11:39;64.98;54.48;81.35;;
74260;Laerm;62630;55.874;37.516;2023-05-10T06:14:05;70.66;56.80;86.08;;
74260;Laerm;62630;55.874;37.516;2023-05-10T06:16:32;66.13;55.66;77.77;;
74260;Laerm;62630;55.874;37.516;2023-05-10T06:18:57;62.38;52.67;70.75;;
74260;Laerm;62630;55.874;37.516;2023-05-10T06:21:23;65.25;56.63;76.36;;
74260;Laerm;62630;55.874;37.516;2023-05-10T06:23:48;65.20;58.14;75.58;;
74260;Laerm;62630;55.874;37.516;2023-05-10T06:26:16;63.68;56.22;70.38;;
74260;Laerm;62630;55.874;37.516;2023-05-10T06:28:46;65.68;57.18;76.56;;
74260;Laerm;62630;55.874;37.516;2023-05-10T06:31:11;68.60;56.51;82.63;;
74260;Laerm;62630;55.874;37.516;2023-05-10T06:33:37;63.36;56.57;70.33;;
74260;Laerm;62630;55.874;37.516;2023-05-10T06:36:03;66.87;57.30;80.84;;
74260;Laerm;62630;55.874;37.516;2023-05-10T06:38:32;65.93;57.03;80.23;;
74260;Laerm;62630;55.874;37.516;2023-05-10T06:40:59;63.38;57.84;71.91;;
74260;Laerm;62630;55.874;37.516;2023-05-10T06:43:25;64.55;58.02;75.36;;
74260;Laerm;62630;55.874;37.516;2023-05-10T06:45:51;64.93;57.61;73.75;;
74260;Laerm;62630;55.874;37.516;2023-05-10T06:48:17;65.85;57.95;77.14;;
74260;Laerm;62630;55.874;37.516;2023-05-10T06:50:42;64.50;57.08;75.78;;
74260;Laerm;62630;55.874;37.516;2023-05-10T06:53:08;64.73;57.60;71.96;;
74260;Laerm;62630;55.874;37.516;2023-05-10T06:55:33;64.95;57.85;73.31;;
74260;Laerm;62630;55.874;37.516;2023-05-10T06:57:59;65.13;58.54;75.17;;
74260;Laerm;62630;55.874;37.516;2023-05-10T07:00:24;64.73;57.72;73.17;;
74260;Laerm;62630;55.874;37.516;2023-05-10T07:02:50;64.72;58.32;70.59;;
74260;Laerm;62630;55.874;37.516;2023-05-10T07:05:16;65.02;57.58;78.42;;
74260;Laerm;62630;55.874;37.516;2023-05-10T07:07:41;65.53;59.26;73.77;;
74260;Laerm;62630;55.874;37.516;2023-05-10T07:10:07;62.06;56.22;70.24;;
74260;Laerm;62630;55.874;37.516;2023-05-10T07:12:33;66.19;56.89;89.09;;
74260;Laerm;62630;55.874;37.516;2023-05-10T07:14:59;65.25;57.49;74.12;;
74260;Laerm;62630;55.874;37.516;2023-05-10T07:17:24;64.47;57.89;72.91;;
74260;Laerm;62630;55.874;37.516;2023-05-10T07:19:50;66.38;58.03;75.55;;
74260;Laerm;62630;55.874;37.516;2023-05-10T07:22:16;66.03;55.39;78.79;;
74260;Laerm;62630;55.874;37.516;2023-05-10T07:24:45;64.66;56.14;72.86;;
74260;Laerm;62630;55.874;37.516;2023-05-10T07:27:10;64.94;56.12;73.80;;
74260;Laerm;62630;55.874;37.516;2023-05-10T07:29:36;64.03;54.73;72.20;;
74260;Laerm;62630;55.874;37.516;2023-05-10T07:32:02;63.62;54.89;75.03;;
74260;Laerm;62630;55.874;37.516;2023-05-10T07:34:28;64.36;56.13;71.66;;
74260;Laerm;62630;55.874;37.516;2023-05-10T07:36:56;66.44;55.34;84.52;;
74260;Laerm;62630;55.874;37.516;2023-05-10T07:39:22;63.88;53.25;71.99;;
74260;Laerm;62630;55.874;37.516;2023-05-10T07:41:47;62.47;54.61;75.68;;
74260;Laerm;62630;55.874;37.516;2023-05-10T07:44:13;61.97;50.06;80.29;;
74260;Laerm;62630;55.874;37.516;2023-05-10T07:46:38;62.02;52.25;70.70;;
74260;Laerm;62630;55.874;37.516;2023-05-10T07:49:04;62.22;50.20;74.73;;
74260;Laerm;62630;55.874;37.516;2023-05-10T07:51:29;62.86;52.43;71.22;;
74260;Laerm;62630;55.874;37.516;2023-05-10T07:53:55;62.50;51.76;70.68;;
74260;Laerm;62630;55.874;37.516;2023-05-10T07:56:24;64.62;53.33;72.44;;
74260;Laerm;62630;55.874;37.516;2023-05-10T07:58:51;68.59;57.25;83.88;;
74260;Laerm;62630;55.874;37.516;2023-05-10T08:01:17;66.37;50.91;82.06;;
74260;Laerm;62630;55.874;37.516;2023-05-10T08:03:42;62.02;50.68;74.47;;
74260;Laerm;62630;55.874;37.516;2023-05-10T08:06:08;67.38;52.62;83.01;;
74260;Laerm;62630;55.874;37.516;2023-05-10T08:08:34;65.40;54.17;77.04;;
74260;Laerm;62630;55.874;37.516;2023-05-10T08:10:59;65.06;52.31;78.54;;
74260;Laerm;62630;55.874;37.516;2023-05-10T08:13:25;62.94;49.34;76.09;;
74260;Laerm;62630;55.874;37.516;2023-05-10T08:15:50;63.26;49.82;75.52;;
74260;Laerm;62630;55.874;37.516;2023-05-10T08:18:18;62.48;51.84;70.76;;
74260;Laerm;62630;55.874;37.516;2023-05-10T08:20:44;64.45;53.37;75.86;;
74260;Laerm;62630;55.874;37.516;2023-05-10T08:23:11;63.92;53.59;75.18;;
74260;Laerm;62630;55.874;37.516;2023-05-10T08:25:37;62.66;52.05;80.49;;
74260;Laerm;62630;55.874;37.516;2023-05-10T08:28:03;62.46;49.51;73.15;;
74260;Laerm;62630;55.874;37.516;2023-05-10T08:30:28;67.70;54.94;80.53;;
74260;Laerm;62630;55.874;37.516;2023-05-10T08:32:54;64.34;55.32;73.52;;
74260;Laerm;62630;55.874;37.516;2023-05-10T08:35:21;61.40;51.47;68.57;;
74260;Laerm;62630;55.874;37.516;2023-05-10T08:37:46;62.88;54.27;71.44;;
74260;Laerm;62630;55.874;37.516;2023-05-10T08:40:14;64.67;56.77;76.12;;
74260;Laerm;62630;55.874;37.516;2023-05-10T08:42:43;64.04;52.52;81.29;;
74260;Laerm;62630;55.874;37.516;2023-05-10T08:45:13;67.90;53.02;83.81;;
74260;Laerm;62630;55.874;37.516;2023-05-10T08:47:41;62.61;52.53;72.47;;
74260;Laerm;62630;55.874;37.516;2023-05-10T08:50:07;64.32;55.51;85.03;;
74260;Laerm;62630;55.874;37.516;2023-05-10T08:52:36;63.33;53.58;74.37;;
74260;Laerm;62630;55.874;37.516;2023-05-10T08:55:04;63.18;52.45;71.53;;
74260;Laerm;62630;55.874;37.516;2023-05-10T08:57:29;60.96;50.06;70.54;;
74260;Laerm;62630;55.874;37.516;2023-05-10T08:59:55;63.58;52.66;73.91;;
74260;Laerm;62630;55.874;37.516;2023-05-10T09:02:21;62.41;52.23;80.00;;
74260;Laerm;62630;55.874;37.516;2023-05-10T09:04:48;63.52;55.82;76.35;;
74260;Laerm;62630;55.874;37.516;2023-05-10T09:07:14;63.10;53.29;71.19;;
74260;Laerm;62630;55.874;37.516;2023-05-10T09:09:40;62.57;50.88;74.82;;
74260;Laerm;62630;55.874;37.516;2023-05-10T09:12:06;64.39;50.43;72.61;;
74260;Laerm;62630;55.874;37.516;2023-05-10T09:14:36;63.63;55.05;74.33;;
74260;Laerm;62630;55.874;37.516;2023-05-10T09:17:03;60.72;50.18;69.72;;
74260;Laerm;62630;55.874;37.516;2023-05-10T09:19:29;62.04;50.94;71.56;;
74260;Laerm;62630;55.874;37.516;2023-05-10T09:21:55;66.82;50.73;81.37;;
74260;Laerm;62630;55.874;37.516;2023-05-10T09:24:25;62.69;50.81;74.34;;
74260;Laerm;62630;55.874;37.516;2023-05-10T09:26:52;66.30;53.74;76.46;;
74260;Laerm;62630;55.874;37.516;2023-05-10T09:29:17;62.02;52.85;71.49;;
74260;Laerm;62630;55.874;37.516;2023-05-10T09:31:48;62.99;52.72;76.45;;
74260;Laerm;62630;55.874;37.516;2023-05-10T09:34:20;62.09;50.94;72.41;;
74260;Laerm;62630;55.874;37.516;2023-05-10T09:36:54;62.04;52.45;72.04;;
74260;Laerm;62630;55.874;37.516;2023-05-10T09:39:20;61.95;53.33;75.95;;
74260;Laerm;62630;55.874;37.516;2023-05-10T09:41:47;62.68;52.00;70.62;;
74260;Laerm;62630;55.874;37.516;2023-05-10T09:44:16;63.69;50.21;76.65;;
74260;Laerm;62630;55.874;37.516;2023-05-10T09:46:43;64.03;51.36;73.48;;
74260;Laerm;62630;55.874;37.516;2023-05-10T09:49:09;63.19;51.29;72.53;;
74260;Laerm;62630;55.874;37.516;2023-05-10T09:51:39;61.89;50.85;71.34;;
74260;Laerm;62630;55.874;37.516;2023-05-10T09:54:15;61.98;49.48;70.37;;
74260;Laerm;62630;55.874;37.516;2023-05-10T09:56:42;64.70;53.39;76.00;;
74260;Laerm;62630;55.874;37.516;2023-05-10T09:59:10;65.13;54.80;72.96;;
74260;Laerm;62630;55.874;37.516;2023-05-10T10:01:52;62.19;54.20;71.57;;
74260;Laerm;62630;55.874;37.516;2023-05-10T10:04:21;66.30;48.80;77.69;;
74260;Laerm;62630;55.874;37.516;2023-05-10T10:06:58;68.71;52.49;89.76;;
74260;Laerm;62630;55.874;37.516;2023-05-10T10:09:26;63.58;51.52;78.32;;
74260;Laerm;62630;55.874;37.516;2023-05-10T10:12:10;61.95;53.55;75.27;;
74260;Laerm;62630;55.874;37.516;2023-05-10T10:14:46;65.27;54.00;86.56;;
74260;Laerm;62630;55.874;37.516;2023-05-10T10:17:13;61.97;49.72;73.78;;
74260;Laerm;62630;55.874;37.516;2023-05-10T10:19:41;63.54;50.66;76.72;;
74260;Laerm;62630;55.874;37.516;2023-05-10T10:22:07;66.31;52.05;81.69;;
74260;Laerm;62630;55.874;37.516;2023-05-10T10:24:32;65.00;53.30;72.09;;
74260;Laerm;62630;55.874;37.516;2023-05-10T10:27:28;61.64;50.02;73.43;;
74260;Laerm;62630;55.874;37.516;2023-05-10T10:30:06;62.64;52.18;71.69;;
74260;Laerm;62630;55.874;37.516;2023-05-10T10:35:28;62.77;51.85;79.00;;
74260;Laerm;62630;55.874;37.516;2023-05-10T10:37:54;62.95;53.95;75.22;;
74260;Laerm;62630;55.874;37.516;2023-05-10T10:40:34;61.18;47.49;77.93;;
74260;Laerm;62630;55.874;37.516;2023-05-10T10:43:25;63.03;50.47;72.47;;
74260;Laerm;62630;55.874;37.516;2023-05-10T10:46:16;62.14;49.17;70.16;;
74260;Laerm;62630;55.874;37.516;2023-05-10T10:48:49;67.98;53.39;84.57;;
74260;Laerm;62630;55.874;37.516;2023-05-10T10:51:16;62.62;49.38;72.80;;
74260;Laerm;62630;55.874;37.516;2023-05-10T10:53:44;60.82;49.22;71.42;;
74260;Laerm;62630;55.874;37.516;2023-05-10T10:56:13;63.50;52.57;70.70;;
74260;Laerm;62630;55.874;37.516;2023-05-10T10:58:49;61.80;51.29;69.90;;
74260;Laerm;62630;55.874;37.516;2023-05-10T11:01:19;64.89;53.07;85.86;;
74260;Laerm;62630;55.874;37.516;2023-05-10T11:06:35;67.62;54.55;79.33;;
74260;Laerm;62630;55.874;37.516;2023-05-10T11:09:09;65.70;52.91;81.11;;
74260;Laerm;62630;55.874;37.516;2023-05-10T11:11:48;63.13;51.55;73.10;;
74260;Laerm;62630;55.874;37.516;2023-05-10T11:14:14;64.19;53.43;73.00;;
74260;Laerm;62630;55.874;37.516;2023-05-10T11:16:44;63.01;55.18;75.41;;
74260;Laerm;62630;55.874;37.516;2023-05-10T11:19:11;65.22;56.11;77.88;;
74260;Laerm;62630;55.874;37.516;2023-05-10T11:24:30;61.57;53.86;70.63;;
74260;Laerm;62630;55.874;37.516;2023-05-10T11:26:56;64.24;56.56;75.69;;
74260;Laerm;62630;55.874;37.516;2023-05-10T11:29:22;64.21;57.81;70.80;;
74260;Laerm;62630;55.874;37.516;2023-05-10T11:31:49;64.45;57.78;78.26;;
74260;Laerm;62630;55.874;37.516;2023-05-10T11:34:24;70.59;59.16;82.34;;
74260;Laerm;62630;55.874;37.516;2023-05-10T11:36:54;65.39;55.41;74.66;;
74260;Laerm;62630;55.874;37.516;2023-05-10T11:39:20;72.63;54.81;91.60;;
74260;Laerm;62630;55.874;37.516;2023-05-10T11:41:49;65.08;57.06;74.57;;
74260;Laerm;62630;55.874;37.516;2023-05-10T11:44:15;64.82;55.37;73.26;;
74260;Laerm;62630;55.874;37.516;2023-05-10T11:46:41;67.82;62.01;73.29;;
74260;Laerm;62630;55.874;37.516;2023-05-10T11:49:07;66.28;55.22;76.20;;
74260;Laerm;62630;55.874;37.516;2023-05-10T11:51:34;64.74;56.25;75.87;;
74260;Laerm;62630;55.874;37.516;2023-05-10T11:54:09;63.17;54.65;73.52;;
74260;Laerm;62630;55.874;37.516;2023-05-10T11:56:39;66.84;56.35;80.25;;
74260;Laerm;62630;55.874;37.516;2023-05-10T11:59:08;65.46;59.53;72.49;;
74260;Laerm;62630;55.874;37.516;2023-05-10T12:01:33;67.69;59.55;76.52;;
74260;Laerm;62630;55.874;37.516;2023-05-10T12:04:00;66.80;55.29;75.34;;
74260;Laerm;62630;55.874;37.516;2023-05-10T12:06:27;69.91;54.49;76.74;;
74260;Laerm;62630;55.874;37.516;2023-05-10T12:08:54;69.19;55.81;79.59;;
74260;Laerm;62630;55.874;37.516;2023-05-10T12:11:24;64.18;55.90;71.87;;
74260;Laerm;62630;55.874;37.516;2023-05-10T12:13:50;63.12;54.58;75.58;;
74260;Laerm;62630;55.874;37.516;2023-05-10T12:16:18;64.33;54.84;73.20;;
74260;Laerm;62630;55.874;37.516;2023-05-10T12:18:45;64.92;56.00;74.79;;
74260;Laerm;62630;55.874;37.516;2023-05-10T12:21:14;65.70;55.64;74.99;;
74260;Laerm;62630;55.874;37.516;2023-05-10T12:23:41;63.47;52.79;74.27;;
74260;Laerm;62630;55.874;37.516;2023-05-10T12:26:10;63.36;54.48;77.58;;
74260;Laerm;62630;55.874;37.516;2023-05-10T12:28:37;65.35;52.22;82.07;;
74260;Laerm;62630;55.874;37.516;2023-05-10T12:31:05;67.44;54.82;81.22;;
74260;Laerm;62630;55.874;37.516;2023-05-10T12:33:57;64.49;50.92;77.59;;
74260;Laerm;62630;55.874;37.516;2023-05-10T12:36:23;62.16;50.85;70.85;;
74260;Laerm;62630;55.874;37.516;2023-05-10T12:38:49;64.77;50.21;75.28;;
74260;Laerm;62630;55.874;37.516;2023-05-10T12:41:17;61.94;50.61;70.63;;
74260;Laerm;62630;55.874;37.516;2023-05-10T12:43:43;64.10;54.80;71.38;;
74260;Laerm;62630;55.874;37.516;2023-05-10T12:46:11;63.84;52.37;76.25;;
74260;Laerm;62630;55.874;37.516;2023-05-10T12:48:37;65.65;54.09;89.53;;
74260;Laerm;62630;55.874;37.516;2023-05-10T12:51:04;62.85;51.30;78.40;;
74260;Laerm;62630;55.874;37.516;2023-05-10T12:53:30;64.33;54.89;71.53;;
74260;Laerm;62630;55.874;37.516;2023-05-10T12:55:56;69.19;51.79;82.77;;
74260;Laerm;62630;55.874;37.516;2023-05-10T12:58:22;63.55;53.78;72.72;;
74260;Laerm;62630;55.874;37.516;2023-05-10T13:00:47;63.37;50.44;74.76;;
74260;Laerm;62630;55.874;37.516;2023-05-10T13:03:13;62.27;52.65;76.16;;
74260;Laerm;62630;55.874;37.516;2023-05-10T13:05:43;67.72;53.37;79.68;;
74260;Laerm;62630;55.874;37.516;2023-05-10T13:08:09;61.81;49.66;72.64;;
74260;Laerm;62630;55.874;37.516;2023-05-10T13:10:34;63.80;51.58;74.47;;
74260;Laerm;62630;55.874;37.516;2023-05-10T13:13:00;64.28;52.68;77.08;;
74260;Laerm;62630;55.874;37.516;2023-05-10T13:15:26;62.33;50.13;71.01;;
74260;Laerm;62630;55.874;37.516;2023-05-10T13:17:54;63.26;54.27;74.45;;
74260;Laerm;62630;55.874;37.516;2023-05-10T13:20:19;64.91;53.01;73.36;;
74260;Laerm;62630;55.874;37.516;2023-05-10T13:22:46;64.99;53.34;80.13;;
74260;Laerm;62630;55.874;37.516;2023-05-10T13:25:12;63.13;51.50;71.92;;
74260;Laerm;62630;55.874;37.516;2023-05-10T13:27:39;62.89;53.13;82.97;;
74260;Laerm;62630;55.874;37.516;2023-05-10T13:30:07;64.46;54.58;71.44;;
74260;Laerm;62630;55.874;37.516;2023-05-10T13:32:32;69.84;56.89;79.16;;
74260;Laerm;62630;55.874;37.516;2023-05-10T13:34:58;61.96;50.73;68.46;;
74260;Laerm;62630;55.874;37.516;2023-05-10T13:37:25;63.52;53.12;71.75;;
74260;Laerm;62630;55.874;37.516;2023-05-10T13:39:51;63.85;50.38;73.14;;
74260;Laerm;62630;55.874;37.516;2023-05-10T13:42:17;61.89;51.22;70.11;;
74260;Laerm;62630;55.874;37.516;2023-05-10T13:44:43;64.42;53.75;82.67;;
74260;Laerm;62630;55.874;37.516;2023-05-10T13:47:10;67.18;56.40;77.91;;
74260;Laerm;62630;55.874;37.516;2023-05-10T13:49:36;65.51;54.81;75.57;;
74260;Laerm;62630;55.874;37.516;2023-05-10T13:52:02;69.01;53.93;80.21;;
74260;Laerm;62630;55.874;37.516;2023-05-10T13:54:38;63.57;53.78;73.81;;
74260;Laerm;62630;55.874;37.516;2023-05-10T13:57:04;64.91;52.44;76.26;;